createdAt,value
2019-05-03T00:00:18.819Z,13.33
2019-05-03T00:04:22.607Z,13.53
2019-05-03T00:08:21.723Z,13.70
2019-05-03T00:12:22.168Z,14.13
2019-05-03T00:16:29.634Z,14.03
2019-05-03T00:20:28.267Z,12.80
2019-05-03T00:24:29.465Z,14.77
2019-05-03T00:28:28.015Z,16.30
2019-05-03T00:32:28.514Z,14.17
2019-05-03T00:36:43.557Z,17.63
2019-05-03T00:40:47.491Z,19.20
2019-05-03T00:44:52.581Z,14.87
2019-05-03T00:48:54.162Z,19.20
2019-05-03T00:52:53.255Z,20.70
2019-05-03T00:57:02.994Z,13.50
2019-05-03T01:01:02.705Z,16.20
2019-05-03T01:05:02.917Z,14.37
2019-05-03T01:09:11.813Z,18.87
2019-05-03T01:13:14.327Z,22.90
2019-05-03T01:17:15.097Z,12.77
2019-05-03T01:21:18.804Z,22.03
2019-05-03T01:25:29.237Z,17.43
2019-05-03T01:29:18.005Z,20.83
2019-05-03T01:33:22.716Z,20.77
2019-05-03T01:37:22.632Z,18.00
2019-05-03T01:41:25.413Z,20.37
2019-05-03T01:45:23.959Z,18.77
2019-05-03T01:49:42.670Z,15.93
2019-05-03T01:53:46.060Z,17.97
2019-05-03T01:57:44.614Z,17.83
2019-05-03T02:02:03.801Z,18.90
2019-05-03T02:06:06.543Z,21.87
2019-05-03T02:10:07.199Z,22.20
2019-05-03T02:14:22.190Z,22.20
2019-05-03T02:18:23.063Z,22.10
2019-05-03T02:22:24.014Z,19.30
2019-05-03T02:26:26.085Z,15.67
2019-05-03T02:30:28.021Z,17.83
2019-05-03T02:34:26.572Z,16.93
2019-05-03T02:38:26.231Z,18.13
2019-05-03T02:42:26.981Z,13.33
2019-05-03T02:46:39.364Z,16.07
2019-05-03T02:50:40.023Z,16.63
2019-05-03T02:54:46.567Z,13.67
2019-05-03T02:58:45.896Z,14.43
2019-05-03T03:02:48.503Z,14.87
2019-05-03T03:07:20.714Z,13.03
2019-05-03T03:10:55.682Z,18.70
2019-05-03T03:15:00.042Z,15.03
2019-05-03T03:19:01.916Z,23.43
2019-05-03T03:23:20.467Z,18.13
2019-05-03T03:27:25.744Z,19.63
2019-05-03T03:31:37.846Z,17.93
2019-05-03T03:35:38.121Z,19.30
2019-05-03T03:39:36.768Z,18.80
2019-05-03T03:43:36.665Z,16.17
2019-05-03T03:47:46.428Z,16.47
2019-05-03T03:51:40.766Z,10.20
2019-05-03T03:55:40.287Z,16.77
2019-05-03T03:59:40.750Z,19.23
2019-05-03T04:03:39.780Z,18.60
2019-05-03T04:07:41.752Z,16.50
2019-05-03T04:11:41.689Z,18.00
2019-05-03T04:15:52.954Z,15.13
2019-05-03T04:20:07.453Z,20.50
2019-05-03T04:24:06.341Z,16.33
2019-05-03T04:28:05.911Z,13.00
2019-05-03T04:32:06.886Z,14.47
2019-05-03T04:36:08.579Z,14.40
2019-05-03T04:40:07.304Z,8.60
2019-05-03T04:44:06.449Z,13.00
2019-05-03T04:48:07.780Z,10.20
2019-05-03T04:52:06.667Z,12.73
2019-05-03T04:56:06.505Z,16.53
2019-05-03T05:00:12.589Z,14.93
2019-05-03T05:04:11.095Z,14.20
2019-05-03T05:08:17.256Z,14.30
2019-05-03T05:12:17.610Z,19.37
2019-05-03T05:16:16.232Z,21.53
2019-05-03T05:20:20.788Z,11.83
2019-05-03T05:24:21.217Z,22.37
2019-05-03T05:28:21.442Z,17.23
2019-05-03T05:32:19.958Z,14.37
2019-05-03T05:36:20.526Z,16.37
2019-05-03T05:40:24.563Z,12.97
2019-05-03T05:44:24.773Z,20.27
2019-05-03T05:48:26.403Z,13.03
2019-05-03T05:52:24.919Z,19.77
2019-05-03T05:56:27.782Z,11.93
2019-05-03T06:00:30.288Z,17.33
2019-05-03T06:04:30.591Z,15.80
2019-05-03T06:08:35.416Z,15.20
2019-05-03T06:12:38.235Z,14.33
2019-05-03T06:16:38.404Z,18.47
2019-05-03T06:20:42.831Z,19.53
2019-05-03T06:24:58.530Z,21.77
2019-05-03T06:28:57.064Z,15.13
2019-05-03T06:32:57.467Z,14.70
2019-05-03T06:37:08.374Z,11.90
2019-05-03T06:41:05.757Z,14.30
2019-05-03T06:45:10.517Z,17.37
2019-05-03T06:49:12.119Z,13.00
2019-05-03T06:53:13.015Z,11.20
2019-05-03T06:57:14.760Z,15.00
2019-05-03T07:01:15.428Z,15.43
2019-05-03T07:05:28.092Z,14.53
2019-05-03T07:09:35.927Z,14.83
2019-05-03T07:13:34.544Z,17.97
2019-05-03T07:17:37.717Z,15.27
2019-05-03T07:21:38.054Z,9.80
2019-05-03T07:25:36.741Z,15.00
2019-05-03T07:29:36.606Z,16.80
2019-05-03T07:33:44.627Z,12.93
2019-05-03T07:37:50.269Z,12.40
2019-05-03T07:41:50.842Z,13.73
2019-05-03T07:45:56.086Z,6.23
2019-05-03T07:49:56.761Z,8.73
2019-05-03T07:53:55.709Z,4.10
2019-05-03T07:58:04.456Z,8.33
2019-05-03T08:02:02.225Z,13.63
2019-05-03T08:06:06.949Z,7.87
2019-05-03T08:10:09.446Z,6.37
2019-05-03T08:14:15.965Z,8.50
2019-05-03T08:18:15.343Z,12.77
2019-05-03T08:22:14.955Z,7.70
2019-05-03T08:26:15.291Z,11.47
2019-05-03T08:30:16.852Z,16.83
2019-05-03T08:34:20.209Z,7.63
2019-05-03T08:38:18.754Z,10.57
2019-05-03T08:42:25.609Z,11.67
2019-05-03T08:46:25.879Z,10.77
2019-05-03T08:50:27.387Z,12.20
2019-05-03T08:54:28.606Z,10.27
2019-05-03T08:58:29.610Z,8.37
2019-05-03T09:02:34.468Z,8.73
2019-05-03T09:06:35.353Z,12.07
2019-05-03T09:10:37.639Z,6.93
2019-05-03T09:14:42.529Z,10.13
2019-05-03T09:18:36.856Z,6.20
2019-05-03T09:22:35.392Z,7.90
2019-05-03T09:26:37.013Z,6.40
2019-05-03T09:30:36.838Z,7.37
2019-05-03T09:34:35.318Z,5.67
2019-05-03T09:38:35.015Z,5.67
2019-05-03T09:42:35.442Z,7.60
2019-05-03T09:46:35.627Z,9.73
2019-05-03T09:50:37.395Z,5.53
2019-05-03T09:54:37.645Z,9.47
2019-05-03T09:58:38.220Z,5.97
2019-05-03T10:02:36.992Z,8.40
2019-05-03T10:06:35.968Z,9.63
2019-05-03T10:10:54.467Z,3.87
2019-05-03T10:14:54.865Z,6.77
2019-05-03T10:18:56.924Z,8.00
2019-05-03T10:22:57.346Z,4.83
2019-05-03T10:27:02.810Z,6.43
2019-05-03T10:31:07.465Z,3.63
2019-05-03T10:35:09.627Z,6.93
2019-05-03T10:39:11.427Z,4.37
2019-05-03T10:43:10.647Z,8.43
2019-05-03T10:47:09.614Z,4.43
2019-05-03T10:51:08.386Z,5.53
2019-05-03T10:55:07.827Z,7.03
2019-05-03T10:59:11.362Z,4.40
2019-05-03T11:03:17.730Z,8.37
2019-05-03T11:07:19.924Z,10.37
2019-05-03T11:11:18.698Z,6.23
2019-05-03T11:15:17.596Z,5.07
2019-05-03T11:19:25.319Z,7.40
2019-05-03T11:23:25.051Z,4.30
2019-05-03T11:27:25.045Z,6.73
2019-05-03T11:31:40.002Z,9.67
2019-05-03T11:35:50.317Z,5.93
2019-05-03T11:39:53.340Z,10.40
2019-05-03T11:43:58.322Z,4.03
2019-05-03T11:47:58.849Z,5.73
2019-05-03T11:52:01.183Z,3.73
2019-05-03T11:56:55.762Z,6.00
2019-05-03T12:00:11.322Z,3.27
2019-05-03T12:04:11.734Z,4.80
2019-05-03T12:08:14.725Z,3.30
2019-05-03T12:12:15.503Z,4.53
2019-05-03T12:17:00.509Z,6.23
2019-05-03T12:20:28.703Z,4.33
2019-05-03T12:24:28.340Z,2.80
2019-05-03T12:28:53.122Z,4.30
2019-05-03T12:33:05.904Z,5.43
2019-05-03T12:36:57.366Z,4.60
2019-05-03T12:40:57.682Z,3.13
2019-05-03T12:45:04.544Z,6.70
2019-05-03T12:49:05.234Z,4.17
2019-05-03T12:53:05.446Z,5.13
2019-05-03T12:57:05.043Z,5.57
2019-05-03T13:01:11.807Z,8.13
2019-05-03T13:05:15.462Z,4.80
2019-05-03T13:09:16.008Z,5.33
2019-05-03T13:13:24.890Z,5.93
2019-05-03T13:17:36.080Z,10.27
2019-05-03T13:21:37.099Z,9.20
2019-05-03T13:25:35.625Z,8.47
2019-05-03T13:29:40.891Z,5.93
2019-05-03T13:33:40.680Z,8.97
2019-05-03T13:37:45.249Z,10.87
2019-05-03T13:41:45.517Z,6.07
2019-05-03T13:45:44.988Z,6.93
2019-05-03T13:49:50.404Z,11.90
2019-05-03T13:53:50.150Z,9.73
2019-05-03T13:57:54.827Z,8.07
2019-05-03T14:02:10.801Z,6.50
2019-05-03T14:06:08.597Z,6.97
2019-05-03T14:10:03.717Z,6.63
2019-05-03T14:14:04.670Z,9.03
2019-05-03T14:18:05.599Z,8.10
2019-05-03T14:22:05.388Z,9.43
2019-05-03T14:26:06.389Z,5.77
2019-05-03T14:30:10.906Z,7.67
2019-05-03T14:34:16.900Z,8.43
2019-05-03T14:38:15.106Z,7.43
2019-05-03T14:42:15.339Z,5.23
2019-05-03T14:46:16.301Z,7.63
2019-05-03T14:50:18.174Z,9.00
2019-05-03T14:54:16.857Z,11.03
2019-05-03T14:58:35.380Z,9.57
2019-05-03T15:07:07.389Z,9.70
2019-05-03T15:11:05.287Z,4.90
2019-05-03T15:15:07.309Z,9.63
2019-05-03T15:19:12.304Z,5.27
2019-05-03T15:23:25.434Z,10.87
2019-05-03T15:27:24.825Z,10.27
2019-05-03T15:31:24.594Z,9.20
2019-05-03T15:35:26.113Z,4.43
2019-05-03T15:39:26.238Z,8.97
2019-05-03T15:43:41.707Z,12.97
2019-05-03T15:48:02.101Z,12.10
2019-05-03T15:52:06.739Z,8.00
2019-05-03T15:56:07.997Z,7.33
2019-05-03T16:00:08.955Z,11.47
2019-05-03T16:04:07.492Z,6.07
2019-05-03T16:08:15.385Z,9.70
2019-05-03T16:12:14.578Z,9.07
2019-05-03T16:16:15.174Z,9.53
2019-05-03T16:20:14.425Z,5.93
2019-05-03T16:24:13.050Z,8.00
2019-05-03T16:28:20.335Z,7.97
2019-05-03T16:32:17.284Z,8.23
2019-05-03T16:36:24.286Z,7.73
2019-05-03T16:40:25.248Z,10.27
2019-05-03T16:44:26.846Z,9.63
2019-05-03T16:48:28.416Z,6.43
2019-05-03T16:52:32.505Z,9.67
2019-05-03T16:56:35.116Z,5.97
2019-05-03T17:00:35.156Z,4.17
2019-05-03T17:04:45.169Z,4.53
2019-05-03T17:08:57.298Z,9.50
2019-05-03T17:12:58.050Z,7.17
2019-05-03T17:16:58.198Z,5.30
2019-05-03T17:21:02.443Z,7.57
2019-05-03T17:25:06.546Z,6.47
2019-05-03T17:29:26.777Z,6.53
2019-05-03T17:33:25.320Z,11.73
2019-05-03T17:37:25.715Z,6.93
2019-05-03T17:41:27.966Z,6.50
2019-05-03T17:45:35.124Z,8.33
2019-05-03T17:49:34.816Z,9.33
2019-05-03T17:53:37.606Z,8.67
2019-05-03T17:57:44.438Z,7.00
2019-05-03T18:02:04.189Z,7.10
2019-05-03T18:06:07.644Z,7.03
2019-05-03T18:10:11.646Z,8.57
2019-05-03T18:14:10.202Z,11.13
2019-05-03T18:18:09.518Z,9.50
2019-05-03T18:22:27.498Z,6.57
2019-05-03T18:26:30.141Z,9.43
2019-05-03T18:30:31.813Z,10.93
2019-05-03T18:34:32.915Z,7.90
2019-05-03T18:38:35.094Z,12.30
2019-05-03T18:42:39.075Z,9.77
2019-05-03T18:46:42.080Z,12.47
2019-05-03T18:50:40.645Z,9.97
2019-05-03T18:54:45.142Z,14.03
2019-05-03T18:58:44.851Z,10.60
2019-05-03T19:02:46.952Z,8.50
2019-05-03T19:06:46.078Z,9.53
2019-05-03T19:10:56.643Z,10.53
2019-05-03T19:14:57.146Z,11.43
2019-05-03T19:18:59.908Z,8.53
2019-05-03T19:23:01.347Z,10.03
2019-05-03T19:27:00.006Z,8.80
2019-05-03T19:31:01.619Z,8.70
2019-05-03T19:35:00.528Z,10.03
2019-05-03T19:39:06.032Z,14.70
2019-05-03T19:43:05.248Z,9.33
2019-05-03T19:47:06.692Z,8.13
2019-05-03T19:51:14.886Z,7.67
2019-05-03T19:55:15.366Z,9.10
2019-05-03T19:59:17.119Z,7.67
2019-05-03T20:03:21.501Z,8.67
2019-05-03T20:07:29.089Z,9.57
2019-05-03T20:11:27.611Z,10.90
2019-05-03T20:15:28.897Z,6.03
2019-05-03T20:19:29.499Z,8.63
2019-05-03T20:23:29.978Z,10.87
2019-05-03T20:27:28.738Z,10.90
2019-05-03T20:31:27.281Z,10.90
2019-05-03T20:35:27.563Z,8.17
2019-05-03T20:39:26.021Z,8.23
2019-05-03T20:43:44.611Z,6.83
2019-05-03T20:47:47.606Z,8.27
2019-05-03T20:51:51.297Z,11.27
2019-05-03T20:55:49.388Z,7.13
2019-05-03T20:59:52.215Z,8.43
2019-05-03T21:03:51.087Z,7.93
2019-05-03T21:07:49.610Z,12.47
2019-05-03T21:11:49.765Z,11.07
2019-05-03T21:15:53.626Z,14.00
2019-05-03T21:20:00.226Z,9.80
2019-05-03T21:24:04.643Z,10.93
2019-05-03T21:28:05.814Z,12.93
2019-05-03T21:32:04.596Z,14.43
2019-05-03T21:36:07.160Z,13.50
2019-05-03T21:40:17.215Z,16.13
2019-05-03T21:44:35.555Z,14.13
2019-05-03T21:48:55.378Z,12.73
2019-05-03T21:52:57.961Z,15.70
2019-05-03T21:56:57.986Z,16.47
2019-05-03T22:01:06.003Z,10.73
2019-05-03T22:05:07.863Z,12.10
2019-05-03T22:09:07.166Z,11.07
2019-05-03T22:13:07.468Z,10.10
2019-05-03T22:17:34.214Z,13.27
2019-05-03T22:21:41.847Z,14.93
2019-05-03T22:25:46.172Z,17.27
2019-05-03T22:29:49.478Z,13.40
2019-05-03T22:33:52.038Z,14.97
2019-05-03T22:37:55.076Z,13.77
2019-05-03T22:41:59.289Z,17.37
2019-05-03T22:45:57.767Z,14.43
2019-05-03T22:49:56.317Z,13.03
2019-05-03T22:53:55.259Z,15.97
2019-05-03T22:57:58.086Z,10.40
2019-05-03T23:01:59.647Z,11.43
2019-05-03T23:06:05.052Z,12.47
2019-05-03T23:10:06.550Z,16.70
2019-05-03T23:14:15.054Z,11.97
2019-05-03T23:18:17.227Z,10.43
2019-05-03T23:22:19.738Z,8.20
2019-05-03T23:26:22.193Z,10.93
2019-05-03T23:30:34.930Z,11.60
2019-05-03T23:34:36.157Z,6.60
2019-05-03T23:38:34.405Z,9.00
2019-05-03T23:42:35.081Z,11.13
2019-05-03T23:46:45.470Z,14.60
2019-05-03T23:50:56.298Z,18.87
2019-05-03T23:54:58.929Z,15.17
2019-05-03T23:58:59.000Z,8.23
